sensor_id;sensor_type;location;lat;lon;timestamp;temperature;humidity
27506;DHT22;14939;43.596;1.320;2022-07-18T00:02:00;26.20;21.10
27506;DHT22;14939;43.596;1.320;2022-07-18T00:04:26;26.10;21.50
27506;DHT22;14939;43.596;1.320;2022-07-18T00:06:53;26.00;21.70
27506;DHT22;14939;43.596;1.320;2022-07-18T00:09:19;26.00;22.20
27506;DHT22;14939;43.596;1.320;2022-07-18T00:11:48;26.00;22.80
27506;DHT22;14939;43.596;1.320;2022-07-18T00:14:13;26.00;22.60
27506;DHT22;14939;43.596;1.320;2022-07-18T00:16:39;25.90;22.70
27506;DHT22;14939;43.596;1.320;2022-07-18T00:19:05;25.90;22.90
27506;DHT22;14939;43.596;1.320;2022-07-18T00:21:32;25.80;23.10
27506;DHT22;14939;43.596;1.320;2022-07-18T00:23:58;25.70;23.30
27506;DHT22;14939;43.596;1.320;2022-07-18T00:26:23;25.60;23.50
27506;DHT22;14939;43.596;1.320;2022-07-18T00:28:49;25.50;23.60
27506;DHT22;14939;43.596;1.320;2022-07-18T00:31:15;25.50;23.70
27506;DHT22;14939;43.596;1.320;2022-07-18T00:33:40;25.50;23.00
27506;DHT22;14939;43.596;1.320;2022-07-18T00:36:06;25.50;23.20
27506;DHT22;14939;43.596;1.320;2022-07-18T00:38:32;25.50;23.10
27506;DHT22;14939;43.596;1.320;2022-07-18T00:40:57;25.50;23.00
27506;DHT22;14939;43.596;1.320;2022-07-18T00:43:23;25.50;22.90
27506;DHT22;14939;43.596;1.320;2022-07-18T00:45:49;25.50;22.30
27506;DHT22;14939;43.596;1.320;2022-07-18T00:48:16;25.50;22.50
27506;DHT22;14939;43.596;1.320;2022-07-18T00:50:43;25.50;22.40
27506;DHT22;14939;43.596;1.320;2022-07-18T00:53:09;25.40;22.60
27506;DHT22;14939;43.596;1.320;2022-07-18T00:55:39;25.30;22.70
27506;DHT22;14939;43.596;1.320;2022-07-18T00:58:06;25.20;23.00
27506;DHT22;14939;43.596;1.320;2022-07-18T01:00:32;25.10;23.20
27506;DHT22;14939;43.596;1.320;2022-07-18T01:03:17;25.10;23.30
27506;DHT22;14939;43.596;1.320;2022-07-18T01:05:42;25.00;23.50
27506;DHT22;14939;43.596;1.320;2022-07-18T01:08:08;25.00;23.60
27506;DHT22;14939;43.596;1.320;2022-07-18T01:10:33;24.90;23.90
27506;DHT22;14939;43.596;1.320;2022-07-18T01:13:00;24.80;24.20
27506;DHT22;14939;43.596;1.320;2022-07-18T01:15:26;24.80;24.70
27506;DHT22;14939;43.596;1.320;2022-07-18T01:17:51;24.70;24.90
27506;DHT22;14939;43.596;1.320;2022-07-18T01:20:17;24.70;25.20
27506;DHT22;14939;43.596;1.320;2022-07-18T01:22:43;24.70;25.50
27506;DHT22;14939;43.596;1.320;2022-07-18T01:25:10;24.60;25.80
27506;DHT22;14939;43.596;1.320;2022-07-18T01:27:36;24.60;26.00
27506;DHT22;14939;43.596;1.320;2022-07-18T01:30:04;24.60;26.30
27506;DHT22;14939;43.596;1.320;2022-07-18T01:32:30;24.50;26.50
27506;DHT22;14939;43.596;1.320;2022-07-18T01:34:55;24.40;26.90
27506;DHT22;14939;43.596;1.320;2022-07-18T01:37:21;24.30;27.50
27506;DHT22;14939;43.596;1.320;2022-07-18T01:39:47;24.30;27.60
27506;DHT22;14939;43.596;1.320;2022-07-18T01:42:14;24.20;27.60
27506;DHT22;14939;43.596;1.320;2022-07-18T01:44:40;24.20;27.80
27506;DHT22;14939;43.596;1.320;2022-07-18T01:47:08;24.10;27.90
27506;DHT22;14939;43.596;1.320;2022-07-18T01:49:35;24.10;28.20
27506;DHT22;14939;43.596;1.320;2022-07-18T01:52:02;23.90;28.50
27506;DHT22;14939;43.596;1.320;2022-07-18T01:54:30;23.80;28.90
27506;DHT22;14939;43.596;1.320;2022-07-18T01:56:57;23.90;28.90
27506;DHT22;14939;43.596;1.320;2022-07-18T01:59:23;23.80;29.10
27506;DHT22;14939;43.596;1.320;2022-07-18T02:01:49;23.70;29.30
27506;DHT22;14939;43.596;1.320;2022-07-18T02:04:15;23.70;29.40
27506;DHT22;14939;43.596;1.320;2022-07-18T02:06:42;23.70;29.20
27506;DHT22;14939;43.596;1.320;2022-07-18T02:09:08;23.70;29.40
27506;DHT22;14939;43.596;1.320;2022-07-18T02:11:35;23.60;29.40
27506;DHT22;14939;43.596;1.320;2022-07-18T02:14:01;23.60;29.30
27506;DHT22;14939;43.596;1.320;2022-07-18T02:16:28;23.60;29.10
27506;DHT22;14939;43.596;1.320;2022-07-18T02:18:54;23.60;28.90
27506;DHT22;14939;43.596;1.320;2022-07-18T02:21:20;23.60;28.70
27506;DHT22;14939;43.596;1.320;2022-07-18T02:23:46;23.60;28.80
27506;DHT22;14939;43.596;1.320;2022-07-18T02:26:12;23.60;28.90
27506;DHT22;14939;43.596;1.320;2022-07-18T02:28:38;23.50;28.90
27506;DHT22;14939;43.596;1.320;2022-07-18T02:31:05;23.50;28.90
27506;DHT22;14939;43.596;1.320;2022-07-18T02:33:32;23.40;29.20
27506;DHT22;14939;43.596;1.320;2022-07-18T02:35:58;23.40;29.20
27506;DHT22;14939;43.596;1.320;2022-07-18T02:38:23;23.30;29.30
27506;DHT22;14939;43.596;1.320;2022-07-18T02:40:49;23.30;29.10
27506;DHT22;14939;43.596;1.320;2022-07-18T02:43:15;23.30;29.30
27506;DHT22;14939;43.596;1.320;2022-07-18T02:45:41;23.30;29.50
27506;DHT22;14939;43.596;1.320;2022-07-18T02:48:07;23.30;29.50
27506;DHT22;14939;43.596;1.320;2022-07-18T02:50:34;23.20;29.40
27506;DHT22;14939;43.596;1.320;2022-07-18T02:52:59;23.20;29.70
27506;DHT22;14939;43.596;1.320;2022-07-18T02:55:25;23.10;29.90
27506;DHT22;14939;43.596;1.320;2022-07-18T02:57:51;23.10;29.90
27506;DHT22;14939;43.596;1.320;2022-07-18T03:00:17;23.10;30.10
27506;DHT22;14939;43.596;1.320;2022-07-18T03:02:44;23.10;30.00
27506;DHT22;14939;43.596;1.320;2022-07-18T03:05:10;23.10;30.00
27506;DHT22;14939;43.596;1.320;2022-07-18T03:07:36;23.00;30.40
27506;DHT22;14939;43.596;1.320;2022-07-18T03:10:03;23.00;30.50
27506;DHT22;14939;43.596;1.320;2022-07-18T03:12:29;23.00;30.40
27506;DHT22;14939;43.596;1.320;2022-07-18T03:14:55;23.00;30.50
27506;DHT22;14939;43.596;1.320;2022-07-18T03:17:21;23.00;30.60
27506;DHT22;14939;43.596;1.320;2022-07-18T03:19:46;23.00;31.00
27506;DHT22;14939;43.596;1.320;2022-07-18T03:22:12;23.00;30.90
27506;DHT22;14939;43.596;1.320;2022-07-18T03:24:38;22.90;30.90
27506;DHT22;14939;43.596;1.320;2022-07-18T03:27:04;22.90;31.10
27506;DHT22;14939;43.596;1.320;2022-07-18T03:29:29;22.90;31.50
27506;DHT22;14939;43.596;1.320;2022-07-18T03:31:55;22.90;31.60
27506;DHT22;14939;43.596;1.320;2022-07-18T03:34:20;22.80;31.70
27506;DHT22;14939;43.596;1.320;2022-07-18T03:36:46;22.80;32.00
27506;DHT22;14939;43.596;1.320;2022-07-18T03:39:12;22.70;32.10
27506;DHT22;14939;43.596;1.320;2022-07-18T03:41:38;22.70;32.30
27506;DHT22;14939;43.596;1.320;2022-07-18T03:44:05;22.70;32.40
27506;DHT22;14939;43.596;1.320;2022-07-18T03:46:31;22.60;32.30
27506;DHT22;14939;43.596;1.320;2022-07-18T03:48:57;22.60;32.80
27506;DHT22;14939;43.596;1.320;2022-07-18T03:51:23;22.60;33.10
27506;DHT22;14939;43.596;1.320;2022-07-18T03:53:49;22.40;33.50
27506;DHT22;14939;43.596;1.320;2022-07-18T03:56:15;22.40;33.80
27506;DHT22;14939;43.596;1.320;2022-07-18T03:58:40;22.40;34.10
27506;DHT22;14939;43.596;1.320;2022-07-18T04:01:06;22.40;34.20
27506;DHT22;14939;43.596;1.320;2022-07-18T04:03:32;22.30;34.50
27506;DHT22;14939;43.596;1.320;2022-07-18T04:05:57;22.30;34.60
27506;DHT22;14939;43.596;1.320;2022-07-18T04:08:23;22.20;34.90
27506;DHT22;14939;43.596;1.320;2022-07-18T04:10:49;22.30;35.10
27506;DHT22;14939;43.596;1.320;2022-07-18T04:13:14;22.30;35.20
27506;DHT22;14939;43.596;1.320;2022-07-18T04:15:40;22.20;35.40
27506;DHT22;14939;43.596;1.320;2022-07-18T04:18:07;22.30;35.30
27506;DHT22;14939;43.596;1.320;2022-07-18T04:20:33;22.20;35.30
27506;DHT22;14939;43.596;1.320;2022-07-18T04:23:03;22.30;35.60
27506;DHT22;14939;43.596;1.320;2022-07-18T04:25:36;22.30;35.70
27506;DHT22;14939;43.596;1.320;2022-07-18T04:28:03;22.30;35.50
27506;DHT22;14939;43.596;1.320;2022-07-18T04:30:29;22.20;35.90
27506;DHT22;14939;43.596;1.320;2022-07-18T04:32:56;22.30;36.00
27506;DHT22;14939;43.596;1.320;2022-07-18T04:35:23;22.30;36.00
27506;DHT22;14939;43.596;1.320;2022-07-18T04:37:49;22.30;36.40
27506;DHT22;14939;43.596;1.320;2022-07-18T04:40:16;22.30;37.00
27506;DHT22;14939;43.596;1.320;2022-07-18T04:42:42;22.30;37.60
27506;DHT22;14939;43.596;1.320;2022-07-18T04:45:08;22.40;38.00
27506;DHT22;14939;43.596;1.320;2022-07-18T04:47:34;22.40;38.40
27506;DHT22;14939;43.596;1.320;2022-07-18T04:50:00;22.40;38.80
27506;DHT22;14939;43.596;1.320;2022-07-18T04:52:26;22.40;39.20
27506;DHT22;14939;43.596;1.320;2022-07-18T04:54:51;22.50;39.50
27506;DHT22;14939;43.596;1.320;2022-07-18T04:57:17;22.40;39.80
27506;DHT22;14939;43.596;1.320;2022-07-18T04:59:44;22.50;40.10
27506;DHT22;14939;43.596;1.320;2022-07-18T05:02:10;22.50;40.50
27506;DHT22;14939;43.596;1.320;2022-07-18T05:04:37;22.50;40.50
27506;DHT22;14939;43.596;1.320;2022-07-18T05:07:03;22.50;41.10
27506;DHT22;14939;43.596;1.320;2022-07-18T05:09:29;22.50;41.40
27506;DHT22;14939;43.596;1.320;2022-07-18T05:11:55;22.50;41.50
27506;DHT22;14939;43.596;1.320;2022-07-18T05:14:21;22.60;41.60
27506;DHT22;14939;43.596;1.320;2022-07-18T05:16:47;22.50;41.70
27506;DHT22;14939;43.596;1.320;2022-07-18T05:19:13;22.60;41.70
27506;DHT22;14939;43.596;1.320;2022-07-18T05:21:42;22.70;41.80
27506;DHT22;14939;43.596;1.320;2022-07-18T05:24:08;22.70;41.80
27506;DHT22;14939;43.596;1.320;2022-07-18T05:26:33;22.80;41.90
27506;DHT22;14939;43.596;1.320;2022-07-18T05:28:59;22.80;41.50
27506;DHT22;14939;43.596;1.320;2022-07-18T05:31:25;22.90;41.70
27506;DHT22;14939;43.596;1.320;2022-07-18T05:33:50;22.90;41.50
27506;DHT22;14939;43.596;1.320;2022-07-18T05:36:16;23.00;41.30
27506;DHT22;14939;43.596;1.320;2022-07-18T05:38:42;23.10;41.20
27506;DHT22;14939;43.596;1.320;2022-07-18T05:41:08;23.20;41.10
27506;DHT22;14939;43.596;1.320;2022-07-18T05:43:33;23.20;40.80
27506;DHT22;14939;43.596;1.320;2022-07-18T05:45:59;23.30;40.50
27506;DHT22;14939;43.596;1.320;2022-07-18T05:48:25;23.40;40.20
27506;DHT22;14939;43.596;1.320;2022-07-18T05:50:50;23.50;40.00
27506;DHT22;14939;43.596;1.320;2022-07-18T05:53:16;23.60;40.40
27506;DHT22;14939;43.596;1.320;2022-07-18T05:55:42;23.70;40.10
27506;DHT22;14939;43.596;1.320;2022-07-18T05:58:07;23.80;39.90
27506;DHT22;14939;43.596;1.320;2022-07-18T06:00:33;23.80;40.10
27506;DHT22;14939;43.596;1.320;2022-07-18T06:02:59;23.90;39.90
27506;DHT22;14939;43.596;1.320;2022-07-18T06:05:26;24.00;39.50
27506;DHT22;14939;43.596;1.320;2022-07-18T06:07:56;24.10;39.50
27506;DHT22;14939;43.596;1.320;2022-07-18T06:10:23;24.20;38.60
27506;DHT22;14939;43.596;1.320;2022-07-18T06:12:49;24.30;38.30
27506;DHT22;14939;43.596;1.320;2022-07-18T06:15:15;24.30;37.80
27506;DHT22;14939;43.596;1.320;2022-07-18T06:17:41;24.50;37.40
27506;DHT22;14939;43.596;1.320;2022-07-18T06:20:07;24.60;36.90
27506;DHT22;14939;43.596;1.320;2022-07-18T06:22:33;24.70;36.10
27506;DHT22;14939;43.596;1.320;2022-07-18T06:25:00;24.80;35.40
27506;DHT22;14939;43.596;1.320;2022-07-18T06:27:26;24.90;35.20
27506;DHT22;14939;43.596;1.320;2022-07-18T06:29:52;24.90;35.00
27506;DHT22;14939;43.596;1.320;2022-07-18T06:32:18;25.00;34.50
27506;DHT22;14939;43.596;1.320;2022-07-18T06:34:44;25.10;34.60
27506;DHT22;14939;43.596;1.320;2022-07-18T06:37:09;25.20;34.20
27506;DHT22;14939;43.596;1.320;2022-07-18T06:39:35;25.30;34.00
27506;DHT22;14939;43.596;1.320;2022-07-18T06:42:01;25.40;33.50
27506;DHT22;14939;43.596;1.320;2022-07-18T06:44:26;25.50;33.00
27506;DHT22;14939;43.596;1.320;2022-07-18T06:46:52;25.60;32.90
27506;DHT22;14939;43.596;1.320;2022-07-18T06:49:18;25.70;32.80
27506;DHT22;14939;43.596;1.320;2022-07-18T06:51:44;25.70;32.40
27506;DHT22;14939;43.596;1.320;2022-07-18T06:54:10;25.90;32.00
27506;DHT22;14939;43.596;1.320;2022-07-18T06:56:35;26.00;31.40
27506;DHT22;14939;43.596;1.320;2022-07-18T06:59:01;26.10;30.60
27506;DHT22;14939;43.596;1.320;2022-07-18T07:01:27;26.20;30.50
27506;DHT22;14939;43.596;1.320;2022-07-18T07:03:52;26.30;30.00
27506;DHT22;14939;43.596;1.320;2022-07-18T07:06:18;26.40;31.00
27506;DHT22;14939;43.596;1.320;2022-07-18T07:08:44;26.50;30.00
27506;DHT22;14939;43.596;1.320;2022-07-18T07:11:10;26.60;29.60
27506;DHT22;14939;43.596;1.320;2022-07-18T07:13:36;26.70;29.40
27506;DHT22;14939;43.596;1.320;2022-07-18T07:16:02;26.90;29.10
27506;DHT22;14939;43.596;1.320;2022-07-18T07:18:27;27.00;29.10
27506;DHT22;14939;43.596;1.320;2022-07-18T07:20:53;27.10;28.40
27506;DHT22;14939;43.596;1.320;2022-07-18T07:23:19;27.20;28.40
27506;DHT22;14939;43.596;1.320;2022-07-18T07:25:44;27.40;28.00
27506;DHT22;14939;43.596;1.320;2022-07-18T07:28:10;27.50;27.40
27506;DHT22;14939;43.596;1.320;2022-07-18T07:30:36;27.60;26.90
27506;DHT22;14939;43.596;1.320;2022-07-18T07:33:03;27.80;26.20
27506;DHT22;14939;43.596;1.320;2022-07-18T07:35:29;27.90;25.70
27506;DHT22;14939;43.596;1.320;2022-07-18T07:37:58;28.10;25.40
27506;DHT22;14939;43.596;1.320;2022-07-18T07:40:25;28.20;25.20
27506;DHT22;14939;43.596;1.320;2022-07-18T07:42:51;28.20;24.70
27506;DHT22;14939;43.596;1.320;2022-07-18T07:45:18;28.40;24.40
27506;DHT22;14939;43.596;1.320;2022-07-18T07:47:44;28.40;24.10
27506;DHT22;14939;43.596;1.320;2022-07-18T07:50:12;28.60;24.00
27506;DHT22;14939;43.596;1.320;2022-07-18T07:52:38;28.70;24.10
27506;DHT22;14939;43.596;1.320;2022-07-18T07:55:05;28.90;23.50
27506;DHT22;14939;43.596;1.320;2022-07-18T07:57:31;29.00;23.20
27506;DHT22;14939;43.596;1.320;2022-07-18T07:59:57;29.10;22.90
27506;DHT22;14939;43.596;1.320;2022-07-18T08:02:23;29.10;22.80
27506;DHT22;14939;43.596;1.320;2022-07-18T08:04:48;29.20;22.50
27506;DHT22;14939;43.596;1.320;2022-07-18T08:07:15;29.40;22.20
27506;DHT22;14939;43.596;1.320;2022-07-18T08:09:41;29.40;21.50
27506;DHT22;14939;43.596;1.320;2022-07-18T08:12:07;29.50;21.20
27506;DHT22;14939;43.596;1.320;2022-07-18T08:14:33;29.60;21.10
27506;DHT22;14939;43.596;1.320;2022-07-18T08:16:59;29.70;20.60
27506;DHT22;14939;43.596;1.320;2022-07-18T08:19:25;29.80;20.80
27506;DHT22;14939;43.596;1.320;2022-07-18T08:21:50;29.90;20.20
27506;DHT22;14939;43.596;1.320;2022-07-18T08:24:16;29.90;20.30
27506;DHT22;14939;43.596;1.320;2022-07-18T08:26:42;30.10;20.20
27506;DHT22;14939;43.596;1.320;2022-07-18T08:29:07;30.20;20.10
27506;DHT22;14939;43.596;1.320;2022-07-18T08:31:34;30.30;19.50
27506;DHT22;14939;43.596;1.320;2022-07-18T08:34:00;30.30;19.20
27506;DHT22;14939;43.596;1.320;2022-07-18T08:36:25;30.40;18.80
27506;DHT22;14939;43.596;1.320;2022-07-18T08:38:52;30.50;18.50
27506;DHT22;14939;43.596;1.320;2022-07-18T08:41:17;30.60;18.00
27506;DHT22;14939;43.596;1.320;2022-07-18T08:43:44;30.60;17.70
27506;DHT22;14939;43.596;1.320;2022-07-18T08:46:12;30.80;17.40
27506;DHT22;14939;43.596;1.320;2022-07-18T08:48:38;30.90;17.00
27506;DHT22;14939;43.596;1.320;2022-07-18T08:51:08;31.00;16.70
27506;DHT22;14939;43.596;1.320;2022-07-18T08:53:35;31.00;16.60
27506;DHT22;14939;43.596;1.320;2022-07-18T08:56:03;31.10;16.70
27506;DHT22;14939;43.596;1.320;2022-07-18T08:58:29;31.10;16.20
27506;DHT22;14939;43.596;1.320;2022-07-18T09:00:55;31.10;16.30
27506;DHT22;14939;43.596;1.320;2022-07-18T09:03:23;31.30;16.60
27506;DHT22;14939;43.596;1.320;2022-07-18T09:06:12;31.40;16.00
27506;DHT22;14939;43.596;1.320;2022-07-18T09:08:39;31.40;15.80
27506;DHT22;14939;43.596;1.320;2022-07-18T09:11:10;31.50;16.50
27506;DHT22;14939;43.596;1.320;2022-07-18T09:13:38;31.60;15.90
27506;DHT22;14939;43.596;1.320;2022-07-18T09:16:11;31.70;15.50
27506;DHT22;14939;43.596;1.320;2022-07-18T09:18:40;31.80;15.10
27506;DHT22;14939;43.596;1.320;2022-07-18T09:21:18;31.80;14.70
27506;DHT22;14939;43.596;1.320;2022-07-18T09:23:46;31.80;14.50
27506;DHT22;14939;43.596;1.320;2022-07-18T09:29:03;31.90;14.10
27506;DHT22;14939;43.596;1.320;2022-07-18T09:31:30;32.00;14.50
27506;DHT22;14939;43.596;1.320;2022-07-18T09:34:01;32.20;14.10
27506;DHT22;14939;43.596;1.320;2022-07-18T09:36:28;32.30;13.90
27506;DHT22;14939;43.596;1.320;2022-07-18T09:38:55;32.30;13.50
27506;DHT22;14939;43.596;1.320;2022-07-18T09:41:29;32.40;13.40
27506;DHT22;14939;43.596;1.320;2022-07-18T09:43:58;32.40;13.00
27506;DHT22;14939;43.596;1.320;2022-07-18T09:46:24;32.50;13.00
27506;DHT22;14939;43.596;1.320;2022-07-18T09:49:09;32.50;13.30
27506;DHT22;14939;43.596;1.320;2022-07-18T09:51:35;32.60;12.90
27506;DHT22;14939;43.596;1.320;2022-07-18T09:54:01;32.70;12.80
27506;DHT22;14939;43.596;1.320;2022-07-18T09:56:30;32.80;12.30
27506;DHT22;14939;43.596;1.320;2022-07-18T09:58:59;32.80;11.90
27506;DHT22;14939;43.596;1.320;2022-07-18T10:01:25;32.90;12.00
27506;DHT22;14939;43.596;1.320;2022-07-18T10:03:51;32.90;11.90
27506;DHT22;14939;43.596;1.320;2022-07-18T10:06:17;32.90;12.20
27506;DHT22;14939;43.596;1.320;2022-07-18T10:08:44;33.00;12.10
27506;DHT22;14939;43.596;1.320;2022-07-18T10:11:10;33.10;11.60
27506;DHT22;14939;43.596;1.320;2022-07-18T10:13:37;33.10;11.70
27506;DHT22;14939;43.596;1.320;2022-07-18T10:16:04;33.20;12.30
27506;DHT22;14939;43.596;1.320;2022-07-18T10:18:33;33.30;11.80
27506;DHT22;14939;43.596;1.320;2022-07-18T10:21:04;33.30;11.20
27506;DHT22;14939;43.596;1.320;2022-07-18T10:26:15;33.60;11.20
27506;DHT22;14939;43.596;1.320;2022-07-18T10:36:38;33.90;10.20
27506;DHT22;14939;43.596;1.320;2022-07-18T10:39:11;34.00;10.50
27506;DHT22;14939;43.596;1.320;2022-07-18T10:57:39;34.30;10.40
27506;DHT22;14939;43.596;1.320;2022-07-18T11:02:44;34.40;9.80
27506;DHT22;14939;43.596;1.320;2022-07-18T11:18:32;34.60;9.20
27506;DHT22;14939;43.596;1.320;2022-07-18T11:20:58;34.70;9.50
27506;DHT22;14939;43.596;1.320;2022-07-18T11:23:26;34.70;9.60
27506;DHT22;14939;43.596;1.320;2022-07-18T11:25:54;34.80;9.60
27506;DHT22;14939;43.596;1.320;2022-07-18T11:28:22;34.80;9.20
27506;DHT22;14939;43.596;1.320;2022-07-18T11:31:06;34.90;8.90
27506;DHT22;14939;43.596;1.320;2022-07-18T11:33:34;34.90;8.00
27506;DHT22;14939;43.596;1.320;2022-07-18T11:36:08;35.00;8.10
27506;DHT22;14939;43.596;1.320;2022-07-18T11:38:36;35.10;8.40
27506;DHT22;14939;43.596;1.320;2022-07-18T11:41:02;35.20;7.80
27506;DHT22;14939;43.596;1.320;2022-07-18T11:43:28;35.20;7.60
27506;DHT22;14939;43.596;1.320;2022-07-18T11:46:05;35.20;7.50
27506;DHT22;14939;43.596;1.320;2022-07-18T11:48:33;35.20;7.70
27506;DHT22;14939;43.596;1.320;2022-07-18T11:50:59;35.30;7.40
27506;DHT22;14939;43.596;1.320;2022-07-18T11:53:25;35.30;7.60
27506;DHT22;14939;43.596;1.320;2022-07-18T11:55:52;35.50;7.30
27506;DHT22;14939;43.596;1.320;2022-07-18T11:58:19;35.60;5.70
27506;DHT22;14939;43.596;1.320;2022-07-18T12:00:46;35.60;5.60
27506;DHT22;14939;43.596;1.320;2022-07-18T12:03:17;35.60;6.60
27506;DHT22;14939;43.596;1.320;2022-07-18T12:05:48;35.70;6.40
27506;DHT22;14939;43.596;1.320;2022-07-18T12:08:37;35.70;6.10
27506;DHT22;14939;43.596;1.320;2022-07-18T12:16:08;35.90;4.70
27506;DHT22;14939;43.596;1.320;2022-07-18T12:18:34;35.90;5.00
27506;DHT22;14939;43.596;1.320;2022-07-18T12:21:07;36.00;4.90
27506;DHT22;14939;43.596;1.320;2022-07-18T12:23:33;36.10;5.50
27506;DHT22;14939;43.596;1.320;2022-07-18T12:25:58;36.00;4.60
27506;DHT22;14939;43.596;1.320;2022-07-18T12:28:26;36.00;5.40
27506;DHT22;14939;43.596;1.320;2022-07-18T12:30:52;36.20;5.30
27506;DHT22;14939;43.596;1.320;2022-07-18T12:33:18;36.20;4.90
27506;DHT22;14939;43.596;1.320;2022-07-18T12:35:44;36.10;5.40
27506;DHT22;14939;43.596;1.320;2022-07-18T12:43:09;36.60;6.30
27506;DHT22;14939;43.596;1.320;2022-07-18T12:45:37;36.30;4.90
27506;DHT22;14939;43.596;1.320;2022-07-18T12:48:04;36.30;5.40
27506;DHT22;14939;43.596;1.320;2022-07-18T12:50:30;36.40;5.80
27506;DHT22;14939;43.596;1.320;2022-07-18T12:52:57;36.30;5.70
27506;DHT22;14939;43.596;1.320;2022-07-18T12:55:23;36.50;6.00
27506;DHT22;14939;43.596;1.320;2022-07-18T12:57:49;36.50;6.00
27506;DHT22;14939;43.596;1.320;2022-07-18T13:00:15;36.50;5.50
27506;DHT22;14939;43.596;1.320;2022-07-18T13:02:44;36.60;6.30
27506;DHT22;14939;43.596;1.320;2022-07-18T13:05:10;36.70;5.30
27506;DHT22;14939;43.596;1.320;2022-07-18T13:07:36;36.60;4.90
27506;DHT22;14939;43.596;1.320;2022-07-18T13:10:03;36.70;5.10
27506;DHT22;14939;43.596;1.320;2022-07-18T13:12:28;36.70;4.50
27506;DHT22;14939;43.596;1.320;2022-07-18T13:14:54;36.70;4.90
27506;DHT22;14939;43.596;1.320;2022-07-18T13:17:20;36.80;5.30
27506;DHT22;14939;43.596;1.320;2022-07-18T13:19:45;36.80;5.40
27506;DHT22;14939;43.596;1.320;2022-07-18T13:22:11;36.90;4.70
27506;DHT22;14939;43.596;1.320;2022-07-18T13:24:37;36.90;4.50
27506;DHT22;14939;43.596;1.320;2022-07-18T13:27:04;37.00;4.00
27506;DHT22;14939;43.596;1.320;2022-07-18T13:29:30;37.10;3.90
27506;DHT22;14939;43.596;1.320;2022-07-18T13:31:55;37.00;4.00
27506;DHT22;14939;43.596;1.320;2022-07-18T13:34:22;37.20;4.10
27506;DHT22;14939;43.596;1.320;2022-07-18T13:36:49;37.30;4.40
27506;DHT22;14939;43.596;1.320;2022-07-18T13:39:15;37.20;3.80
27506;DHT22;14939;43.596;1.320;2022-07-18T13:41:41;37.10;3.70
27506;DHT22;14939;43.596;1.320;2022-07-18T13:44:07;37.20;3.40
27506;DHT22;14939;43.596;1.320;2022-07-18T13:46:33;37.20;2.90
27506;DHT22;14939;43.596;1.320;2022-07-18T13:48:58;37.10;2.90
27506;DHT22;14939;43.596;1.320;2022-07-18T13:51:24;37.20;3.30
27506;DHT22;14939;43.596;1.320;2022-07-18T13:53:50;37.30;2.60
27506;DHT22;14939;43.596;1.320;2022-07-18T13:56:15;37.30;3.00
27506;DHT22;14939;43.596;1.320;2022-07-18T13:58:41;37.40;1.80
27506;DHT22;14939;43.596;1.320;2022-07-18T14:01:07;37.60;2.20
27506;DHT22;14939;43.596;1.320;2022-07-18T14:03:33;37.50;2.30
27506;DHT22;14939;43.596;1.320;2022-07-18T14:05:59;37.60;2.70
27506;DHT22;14939;43.596;1.320;2022-07-18T14:08:24;37.70;2.60
27506;DHT22;14939;43.596;1.320;2022-07-18T14:10:50;37.60;2.90
27506;DHT22;14939;43.596;1.320;2022-07-18T14:13:16;37.60;2.80
27506;DHT22;14939;43.596;1.320;2022-07-18T14:15:41;37.70;2.80
27506;DHT22;14939;43.596;1.320;2022-07-18T14:18:07;37.70;2.90
27506;DHT22;14939;43.596;1.320;2022-07-18T14:20:33;37.70;3.00
27506;DHT22;14939;43.596;1.320;2022-07-18T14:22:58;37.70;2.70
27506;DHT22;14939;43.596;1.320;2022-07-18T14:25:24;37.90;2.80
27506;DHT22;14939;43.596;1.320;2022-07-18T14:27:50;37.90;2.50
27506;DHT22;14939;43.596;1.320;2022-07-18T14:30:16;37.90;2.70
27506;DHT22;14939;43.596;1.320;2022-07-18T14:32:43;38.00;2.50
27506;DHT22;14939;43.596;1.320;2022-07-18T14:35:09;38.20;2.20
27506;DHT22;14939;43.596;1.320;2022-07-18T14:37:36;38.20;1.90
27506;DHT22;14939;43.596;1.320;2022-07-18T14:40:02;38.00;1.70
27506;DHT22;14939;43.596;1.320;2022-07-18T14:42:28;38.10;2.20
27506;DHT22;14939;43.596;1.320;2022-07-18T14:44:54;38.30;2.10
27506;DHT22;14939;43.596;1.320;2022-07-18T14:47:21;38.20;2.20
27506;DHT22;14939;43.596;1.320;2022-07-18T14:49:46;38.50;2.40
27506;DHT22;14939;43.596;1.320;2022-07-18T14:52:12;38.80;2.20
27506;DHT22;14939;43.596;1.320;2022-07-18T14:54:38;39.20;2.10
27506;DHT22;14939;43.596;1.320;2022-07-18T14:57:04;39.20;1.00
27506;DHT22;14939;43.596;1.320;2022-07-18T14:59:31;41.20;1.00
27506;DHT22;14939;43.596;1.320;2022-07-18T15:01:56;44.30;1.00
27506;DHT22;14939;43.596;1.320;2022-07-18T15:04:27;45.70;1.00
27506;DHT22;14939;43.596;1.320;2022-07-18T15:06:53;46.90;1.00
27506;DHT22;14939;43.596;1.320;2022-07-18T15:09:19;47.50;1.00
27506;DHT22;14939;43.596;1.320;2022-07-18T15:11:44;47.70;1.00
27506;DHT22;14939;43.596;1.320;2022-07-18T15:14:10;48.30;1.00
27506;DHT22;14939;43.596;1.320;2022-07-18T15:16:36;48.70;1.00
27506;DHT22;14939;43.596;1.320;2022-07-18T15:19:02;48.90;1.00
27506;DHT22;14939;43.596;1.320;2022-07-18T15:21:28;48.40;1.00
27506;DHT22;14939;43.596;1.320;2022-07-18T15:23:54;48.90;1.00
27506;DHT22;14939;43.596;1.320;2022-07-18T15:26:19;49.40;1.00
27506;DHT22;14939;43.596;1.320;2022-07-18T15:28:45;49.20;1.00
27506;DHT22;14939;43.596;1.320;2022-07-18T15:31:11;49.50;1.00
27506;DHT22;14939;43.596;1.320;2022-07-18T15:33:36;49.60;1.00
27506;DHT22;14939;43.596;1.320;2022-07-18T15:36:02;50.10;1.00
27506;DHT22;14939;43.596;1.320;2022-07-18T15:38:28;49.50;1.00
27506;DHT22;14939;43.596;1.320;2022-07-18T15:40:54;49.60;1.00
27506;DHT22;14939;43.596;1.320;2022-07-18T15:43:20;49.70;1.00
27506;DHT22;14939;43.596;1.320;2022-07-18T15:45:45;49.80;1.00
27506;DHT22;14939;43.596;1.320;2022-07-18T15:48:11;49.90;1.00
27506;DHT22;14939;43.596;1.320;2022-07-18T15:50:37;49.70;1.00
27506;DHT22;14939;43.596;1.320;2022-07-18T15:53:03;49.70;1.00
27506;DHT22;14939;43.596;1.320;2022-07-18T15:55:28;50.00;1.00
27506;DHT22;14939;43.596;1.320;2022-07-18T15:57:55;50.50;1.00
27506;DHT22;14939;43.596;1.320;2022-07-18T16:00:21;50.10;1.00
27506;DHT22;14939;43.596;1.320;2022-07-18T16:02:47;50.20;1.00
27506;DHT22;14939;43.596;1.320;2022-07-18T16:05:13;49.70;1.00
27506;DHT22;14939;43.596;1.320;2022-07-18T16:07:40;49.40;1.00
27506;DHT22;14939;43.596;1.320;2022-07-18T16:10:06;49.40;1.00
27506;DHT22;14939;43.596;1.320;2022-07-18T16:12:33;49.40;1.00
27506;DHT22;14939;43.596;1.320;2022-07-18T16:14:58;49.10;1.00
27506;DHT22;14939;43.596;1.320;2022-07-18T16:17:24;49.10;1.00
27506;DHT22;14939;43.596;1.320;2022-07-18T16:19:49;49.10;1.00
27506;DHT22;14939;43.596;1.320;2022-07-18T16:22:15;48.80;1.00
27506;DHT22;14939;43.596;1.320;2022-07-18T16:24:41;48.90;1.00
27506;DHT22;14939;43.596;1.320;2022-07-18T16:27:07;48.80;1.00